CheckWX is a tool to help pilots better visualize weather data.  It is not intended as a substitute for an official pre-flight weather briefing.

09:43:43 UTC

KGYY METAR
Gary / Chicago International Airport
Gary, Indiana, USA
Current

9 mins ago

KGYY 190935Z AUTO 34013KT 10SM OVC025 M03/M09 A3049 RMK AO2 T10321095
Observed
Feb-19 @ 09:35 UTC
Wind
  • 340° at 13 KTS
Visibility
10 SM
Flight Rules
MVFR
Cloud Levels
  • Overcast at 2,500' AGL
Temperature
-3°C / 27°F
Dewpoint
-10°C / 14°F
Humidity
59%
Altimeter
30.49" Hg
Pressure
1032.52 hPa
Previous

29 mins ago

KGYY 190915Z AUTO 34010G16KT 10SM OVC023 M03/M09 A3049 RMK AO2 T10291091
Observed
Feb-19 @ 09:15 UTC
Wind
  • 340° at 10 KTS
  • Gusting to 16 KTS
Visibility
10 SM
Flight Rules
MVFR
Cloud Levels
  • Overcast at 2,300' AGL
Temperature
-3°C / 27°F
Dewpoint
-9°C / 16°F
Humidity
64%
Altimeter
30.49" Hg
Pressure
1032.52 hPa
Previous

49 mins ago

KGYY 190855Z AUTO 32011KT 10SM BKN025 M03/M08 A3048 RMK AO2 T10271085
Observed
Feb-19 @ 08:55 UTC
Wind
  • 320° at 11 KTS
Visibility
10 SM
Flight Rules
MVFR
Cloud Levels
  • Broken at 2,500' AGL
Temperature
-3°C / 27°F
Dewpoint
-9°C / 16°F
Humidity
64%
Altimeter
30.48" Hg
Pressure
1032.22 hPa